Time;durP1;ratioP1;P1;durP2;ratioP2;P2;SDS_P1;SDS_P2;PMS_P1;PMS_P2;Temp;Humidity;BMP_temperature;BMP_pressure;BME280_temperature;BME280_humidity;BME280_pressure;Samples;Min_cycle;Max_cycle;Signal;HPM_P1;HPM_P2
2023/11/15 00:00:11;;;;;;;8.68;4.95;;;16.50;99.90;;;;;;5092229;28;20065;-56
2023/11/15 00:02:37;;;;;;;20.05;12.15;;;16.60;99.90;;;;;;5039247;28;20044;-56
2023/11/15 00:05:04;;;;;;;16.83;11.68;;;16.60;99.90;;;;;;5092139;28;20024;-56
2023/11/15 00:07:30;;;;;;;16.45;11.82;;;16.70;99.90;;;;;;4990177;28;20043;-57
2023/11/15 00:09:56;;;;;;;10.40;6.60;;;16.70;99.90;;;;;;5092227;28;20495;-56
2023/11/15 00:12:22;;;;;;;7.20;3.70;;;16.80;99.90;;;;;;5092342;28;20125;-56
2023/11/15 00:14:48;;;;;;;4.18;1.60;;;16.90;99.90;;;;;;5006314;28;20416;-56
2023/11/15 00:17:14;;;;;;;3.65;1.33;;;17.00;99.90;;;;;;5091768;28;20069;-57
2023/11/15 00:19:43;;;;;;;2.58;1.20;;;17.10;99.90;;;;;;5039515;28;20387;-56
2023/11/15 00:22:08;;;;;;;1.95;0.98;;;17.30;99.90;;;;;;5092023;28;20375;-56
2023/11/15 00:24:34;;;;;;;3.33;1.05;;;;;;;;;;5091745;28;20036;-57
2023/11/15 00:27:00;;;;;;;1.38;0.90;;;17.80;99.90;;;;;;5055931;28;20032;-56
2023/11/15 00:29:27;;;;;;;2.03;0.70;;;17.70;99.90;;;;;;5039622;28;20032;-56
2023/11/15 00:31:53;;;;;;;2.35;1.05;;;17.80;99.90;;;;;;5091813;28;20032;-56
2023/11/15 00:34:19;;;;;;;2.63;0.90;;;17.90;99.90;;;;;;5091621;28;20360;-56
2023/11/15 00:36:45;;;;;;;4.68;0.88;;;18.00;99.90;;;;;;5091652;28;20028;-56
2023/11/15 00:39:11;;;;;;;1.42;1.00;;;18.10;99.90;;;;;;5091644;28;20248;-56
2023/11/15 00:41:37;;;;;;;3.70;0.90;;;18.10;99.90;;;;;;5091312;28;20044;-56
2023/11/15 00:44:06;;;;;;;1.58;0.75;;;18.20;99.90;;;;;;5091438;28;20050;-56
2023/11/15 00:46:33;;;;;;;2.25;1.30;;;18.40;99.90;;;;;;5040582;28;20040;-55
2023/11/15 00:48:59;;;;;;;1.67;0.73;;;18.50;99.90;;;;;;5091448;28;20028;-56
2023/11/15 00:51:25;;;;;;;1.45;0.80;;;;;;;;;;5091377;28;20036;-56
2023/11/15 00:53:51;;;;;;;2.08;0.90;;;18.60;99.90;;;;;;5091350;28;20032;-56
2023/11/15 00:56:17;;;;;;;3.30;0.93;;;18.70;99.90;;;;;;5028795;28;20037;-56
2023/11/15 00:58:43;;;;;;;2.75;1.15;;;;;;;;;;5028863;28;20033;-56
2023/11/15 01:01:10;;;;;;;1.98;0.95;;;;;;;;;;4980118;28;20041;-56
2023/11/15 01:03:40;;;;;;;2.13;0.63;;;;;;;;;;4980338;28;20072;-57
2023/11/15 01:06:06;;;;;;;1.08;0.60;;;;;;;;;;5028707;28;20072;-56
2023/11/15 01:08:33;;;;;;;2.22;0.93;;;;;;;;;;4979962;28;20034;-56
2023/11/15 01:10:58;;;;;;;2.40;0.80;;;19.20;99.90;;;;;;5028651;28;20044;-55
2023/11/15 01:13:26;;;;;;;4.00;1.00;;;19.10;99.90;;;;;;5028665;28;20029;-56
2023/11/15 01:15:52;;;;;;;2.92;1.10;;;19.10;99.90;;;;;;5028632;28;20124;-56
2023/11/15 01:18:21;;;;;;;2.30;0.93;;;19.10;99.90;;;;;;4995843;28;20038;-56
2023/11/15 01:20:47;;;;;;;2.53;1.10;;;19.10;99.90;;;;;;4995729;28;20045;-56
2023/11/15 01:23:13;;;;;;;1.90;0.90;;;19.10;99.90;;;;;;5028504;28;20045;-56
2023/11/15 01:25:39;;;;;;;3.15;1.15;;;;;;;;;;5029856;28;20105;-56
2023/11/15 01:28:05;;;;;;;1.83;0.85;;;;;;;;;;5084651;28;20094;-56
2023/11/15 01:30:31;;;;;;;2.67;0.98;;;;;;;;;;5094934;28;20028;-56
2023/11/15 01:32:58;;;;;;;3.45;0.95;;;;;;;;;;5094612;28;20031;-56
2023/11/15 01:35:24;;;;;;;3.95;0.80;;;;;;;;;;5042777;28;20040;-56
2023/11/15 01:37:51;;;;;;;1.55;0.85;;;;;;;;;;5094015;28;20465;-56
2023/11/15 01:40:21;;;;;;;2.78;1.05;;;;;;;;;;5094555;28;20083;-56
2023/11/15 01:42:50;;;;;;;2.58;1.40;;;19.20;99.90;;;;;;5094440;28;20032;-56
2023/11/15 01:45:17;;;;;;;7.60;2.30;;;;;;;;;;5093557;28;20039;-56
2023/11/15 01:47:43;;;;;;;4.07;2.63;;;;;;;;;;5075261;28;20567;-56
2023/11/15 01:50:13;;;;;;;6.28;4.68;;;17.50;99.90;;;;;;5094886;28;20074;-55
2023/11/15 01:52:39;;;;;;;8.20;4.50;;;;;;;;;;5094596;28;20028;-56
2023/11/15 01:55:09;;;;;;;9.27;6.15;;;16.60;99.90;;;;;;5094110;28;20110;-56
2023/11/15 01:57:35;;;;;;;6.32;5.05;;;16.40;99.90;;;;;;5091881;28;20047;-56
2023/11/15 02:00:02;;;;;;;9.77;6.82;;;16.20;99.90;;;;;;5094385;28;20487;-56
2023/11/15 02:02:28;;;;;;;9.20;7.40;;;16.00;99.90;;;;;;5093998;28;20028;-56
2023/11/15 02:04:53;;;;;;;10.38;7.28;;;15.90;99.90;;;;;;5094127;28;20020;-56
2023/11/15 02:07:19;;;;;;;9.35;6.57;;;15.70;99.90;;;;;;5094297;28;20031;-56
2023/11/15 02:09:45;;;;;;;8.68;6.70;;;15.70;99.90;;;;;;5094006;28;20028;-56
2023/11/15 02:12:11;;;;;;;8.88;6.10;;;15.60;99.90;;;;;;5094125;28;20379;-56
2023/11/15 02:14:37;;;;;;;9.40;5.35;;;15.50;99.90;;;;;;5074733;28;20482;-56
2023/11/15 02:17:05;;;;;;;7.25;6.43;;;15.50;99.90;;;;;;5075746;28;20035;-56
2023/11/15 02:19:31;;;;;;;10.60;4.68;;;15.50;99.90;;;;;;5058084;28;20047;-56
2023/11/15 02:21:56;;;;;;;10.20;4.82;;;15.30;99.90;;;;;;5093709;28;20028;-56
2023/11/15 02:24:22;;;;;;;6.32;4.15;;;15.30;99.90;;;;;;5093508;28;20035;-55
2023/11/15 02:26:48;;;;;;;8.07;3.80;;;15.20;99.90;;;;;;5093587;28;20379;-56
2023/11/15 02:29:14;;;;;;;5.72;3.38;;;15.10;99.90;;;;;;5093554;28;20383;-56
2023/11/15 02:31:40;;;;;;;3.20;2.47;;;15.10;99.90;;;;;;5074469;28;20039;-56
2023/11/15 02:34:06;;;;;;;3.85;2.42;;;15.10;99.90;;;;;;5093539;28;20035;-56
2023/11/15 02:36:32;;;;;;;3.55;2.50;;;15.10;99.90;;;;;;5093833;28;20025;-56
2023/11/15 02:38:58;;;;;;;3.63;3.00;;;15.10;99.90;;;;;;5093195;28;20028;-55
2023/11/15 02:41:24;;;;;;;4.63;2.70;;;15.00;99.90;;;;;;5092942;28;20052;-56
2023/11/15 02:43:50;;;;;;;3.80;2.40;;;15.10;99.90;;;;;;5093742;28;20028;-55
2023/11/15 02:46:22;;;;;;;3.70;2.30;;;15.10;99.90;;;;;;5093429;28;20847;-56
2023/11/15 02:48:48;;;;;;;;;;;15.00;99.90;;;;;;5093812;28;20036;-56
2023/11/15 02:51:14;;;;;;;3.25;1.48;;;15.10;99.90;;;;;;5093125;28;19911;-56
2023/11/15 02:53:40;;;;;;;3.53;2.08;;;15.00;99.90;;;;;;5093174;28;20055;-56
2023/11/15 02:56:07;;;;;;;2.95;2.08;;;15.10;99.90;;;;;;5093451;28;20414;-56
2023/11/15 02:58:33;;;;;;;4.43;2.22;;;15.10;99.90;;;;;;5057468;28;20483;-55
2023/11/15 03:00:59;;;;;;;2.10;1.67;;;15.20;99.90;;;;;;5093398;28;20032;-56
2023/11/15 03:03:25;;;;;;;2.58;1.90;;;15.30;99.90;;;;;;5093052;28;20177;-56
2023/11/15 03:05:51;;;;;;;2.35;1.70;;;15.50;99.90;;;;;;5093265;28;20446;-56
2023/11/15 03:08:16;;;;;;;1.80;1.60;;;15.60;99.90;;;;;;5092831;28;20055;-56
2023/11/15 03:10:43;;;;;;;2.53;1.55;;;15.70;99.90;;;;;;5092912;28;20657;-56
2023/11/15 03:13:09;;;;;;;3.72;1.70;;;15.80;99.90;;;;;;5093190;28;20103;-56
2023/11/15 03:15:36;;;;;;;2.38;1.85;;;15.90;99.90;;;;;;5092240;28;20051;-56
2023/11/15 03:18:03;;;;;;;2.10;1.60;;;16.30;99.90;;;;;;5092436;28;20107;-56
2023/11/15 03:20:30;;;;;;;2.50;1.70;;;16.10;99.90;;;;;;5092581;28;20531;-56
2023/11/15 03:22:56;;;;;;;4.32;1.95;;;16.10;99.90;;;;;;5092598;28;20043;-56
2023/11/15 03:25:23;;;;;;;2.53;1.88;;;16.10;99.90;;;;;;5040127;28;20440;-56
2023/11/15 03:27:50;;;;;;;11.73;10.82;;;16.20;99.90;;;;;;5092856;28;20130;-56
2023/11/15 03:30:16;;;;;;;7.28;6.65;;;16.20;99.90;;;;;;5092331;28;20078;-56
2023/11/15 03:32:43;;;;;;;5.50;5.00;;;16.20;99.90;;;;;;5092783;28;20055;-56
2023/11/15 03:35:10;;;;;;;3.30;2.55;;;16.20;99.90;;;;;;5092844;28;20056;-56
2023/11/15 03:37:36;;;;;;;12.82;11.85;;;16.30;99.90;;;;;;5091316;28;20024;-57
2023/11/15 03:40:02;;;;;;;7.18;6.57;;;16.20;99.90;;;;;;5091949;28;20043;-56
2023/11/15 03:42:28;;;;;;;51.47;47.72;;;16.10;99.90;;;;;;5055339;28;20056;-56
2023/11/15 03:44:54;;;;;;;10.20;9.20;;;16.10;99.90;;;;;;5092469;28;20111;-56
2023/11/15 03:47:20;;;;;;;6.07;4.93;;;16.20;99.90;;;;;;5092116;28;20429;-56
2023/11/15 03:49:46;;;;;;;5.28;3.63;;;16.10;99.90;;;;;;5091882;28;20035;-56
2023/11/15 03:52:11;;;;;;;7.97;6.68;;;16.00;99.90;;;;;;5092157;28;20098;-56
2023/11/15 03:54:37;;;;;;;6.70;4.65;;;16.10;99.90;;;;;;5092118;28;20517;-56
2023/11/15 03:57:06;;;;;;;5.13;2.80;;;16.00;99.90;;;;;;5073156;28;20510;-56
2023/11/15 03:59:32;;;;;;;13.48;12.35;;;16.00;99.90;;;;;;5092141;28;20054;-56
2023/11/15 04:01:58;;;;;;;9.57;7.55;;;15.90;99.90;;;;;;5072980;28;20432;-56
2023/11/15 04:04:24;;;;;;;5.05;4.53;;;16.00;99.90;;;;;;5091918;28;20115;-56
2023/11/15 04:06:50;;;;;;;3.65;2.00;;;16.00;99.90;;;;;;5091991;28;20024;-56
2023/11/15 04:09:16;;;;;;;3.88;2.53;;;15.90;99.90;;;;;;5092522;28;20032;-56
2023/11/15 04:11:42;;;;;;;3.83;2.65;;;15.70;99.90;;;;;;5073018;28;20036;-56
2023/11/15 04:14:07;;;;;;;3.22;2.10;;;15.70;99.90;;;;;;5091880;28;20393;-56
2023/11/15 04:16:33;;;;;;;4.35;2.13;;;15.60;99.90;;;;;;5092093;28;20028;-56
2023/11/15 04:18:59;;;;;;;3.28;1.90;;;15.40;99.90;;;;;;5072991;28;20479;-56
2023/11/15 04:21:29;;;;;;;2.47;1.30;;;15.40;99.90;;;;;;5091718;28;20038;-56
2023/11/15 04:23:54;;;;;;;2.53;1.15;;;15.30;99.90;;;;;;5092224;28;20059;-56
2023/11/15 04:26:23;;;;;;;3.08;1.35;;;15.30;99.90;;;;;;5092037;28;20568;-56
2023/11/15 04:28:49;;;;;;;1.42;0.98;;;15.30;99.90;;;;;;5092034;28;20032;-56
2023/11/15 04:31:15;;;;;;;2.92;1.05;;;15.50;99.90;;;;;;5091630;28;20035;-57
2023/11/15 04:33:41;;;;;;;1.58;0.80;;;15.60;99.90;;;;;;5091794;28;20096;-56
2023/11/15 04:36:07;;;;;;;0.82;0.60;;;15.60;99.90;;;;;;5091642;28;20020;-56
2023/11/15 04:38:33;;;;;;;3.00;1.08;;;15.60;99.90;;;;;;5091725;28;20024;-57
2023/11/15 04:40:59;;;;;;;1.55;0.70;;;15.50;99.90;;;;;;5098677;28;20047;-56
2023/11/15 04:43:26;;;;;;;2.55;0.85;;;15.50;99.90;;;;;;5111911;28;20490;-56
2023/11/15 04:45:52;;;;;;;1.33;0.77;;;15.60;99.90;;;;;;5112529;28;20051;-56
2023/11/15 04:48:18;;;;;;;1.00;0.90;;;15.60;99.90;;;;;;5111876;28;20032;-56
2023/11/15 04:50:44;;;;;;;2.60;1.10;;;15.50;99.90;;;;;;5075952;28;20039;-56
2023/11/15 04:53:09;;;;;;;2.47;1.70;;;15.60;99.90;;;;;;5075916;28;20111;-56
2023/11/15 04:55:36;;;;;;;0.73;0.68;;;15.60;99.90;;;;;;5112044;28;20032;-56
2023/11/15 04:58:01;;;;;;;0.85;0.73;;;15.60;99.90;;;;;;5076268;28;20555;-56
2023/11/15 05:00:27;;;;;;;0.90;0.70;;;15.70;99.90;;;;;;5112838;28;20062;-56
2023/11/15 05:02:53;;;;;;;1.02;0.80;;;15.60;99.90;;;;;;5115710;28;20047;-56
2023/11/15 05:05:19;;;;;;;2.03;1.00;;;15.60;99.90;;;;;;5115719;28;20028;-56
2023/11/15 05:07:45;;;;;;;2.28;1.00;;;15.70;99.90;;;;;;5079479;28;20478;-56
2023/11/15 05:10:11;;;;;;;2.05;1.00;;;15.70;99.90;;;;;;5115738;28;20023;-56
2023/11/15 05:12:37;;;;;;;1.75;1.20;;;15.60;99.90;;;;;;5115925;28;20026;-56
2023/11/15 05:15:06;;;;;;;1.20;1.10;;;15.60;99.90;;;;;;5115604;28;20023;-56
2023/11/15 05:17:32;;;;;;;1.52;1.10;;;15.60;99.90;;;;;;5079423;28;20475;-56
2023/11/15 05:19:58;;;;;;;1.83;1.20;;;15.50;99.90;;;;;;5115389;28;20023;-56
2023/11/15 05:22:23;;;;;;;1.92;1.05;;;15.40;99.90;;;;;;5079222;28;20084;-56
2023/11/15 05:24:49;;;;;;;1.77;1.02;;;15.30;99.90;;;;;;5115189;28;20033;-56
2023/11/15 05:27:16;;;;;;;1.40;1.13;;;15.20;99.90;;;;;;5079111;28;20043;-56
2023/11/15 05:29:42;;;;;;;2.15;1.10;;;15.20;99.90;;;;;;5115349;28;20038;-57
2023/11/15 05:32:08;;;;;;;1.20;1.10;;;15.20;99.90;;;;;;5115393;28;20638;-56
2023/11/15 05:34:35;;;;;;;0.82;0.82;;;15.10;99.90;;;;;;5115070;28;20035;-56
2023/11/15 05:37:01;;;;;;;1.60;1.00;;;15.10;99.90;;;;;;5115160;28;20027;-56
2023/11/15 05:39:27;;;;;;;1.60;1.00;;;15.10;99.90;;;;;;5078869;28;20390;-56
2023/11/15 05:41:52;;;;;;;1.83;1.00;;;15.00;99.90;;;;;;5115150;28;20044;-56
2023/11/15 05:44:18;;;;;;;3.67;2.92;;;15.00;99.90;;;;;;5114163;28;20024;-57
2023/11/15 05:46:44;;;;;;;1.35;0.90;;;15.00;99.90;;;;;;5114792;28;20028;-56
2023/11/15 05:49:10;;;;;;;1.13;0.73;;;15.00;99.90;;;;;;5115225;28;20059;-56
2023/11/15 05:51:36;;;;;;;1.30;1.00;;;15.00;99.90;;;;;;5114887;28;20039;-56
2023/11/15 05:54:04;;;;;;;1.73;1.08;;;15.00;99.90;;;;;;5114700;28;20376;-56
2023/11/15 05:56:31;;;;;;;1.70;1.10;;;15.00;99.90;;;;;;5114696;28;20107;-56
2023/11/15 05:58:57;;;;;;;1.67;1.05;;;15.10;99.90;;;;;;5114566;28;20061;-56
2023/11/15 06:01:24;;;;;;;3.03;1.20;;;15.10;99.90;;;;;;5114649;28;20027;-56
2023/11/15 06:03:50;;;;;;;2.58;1.48;;;15.10;99.90;;;;;;5114473;28;20038;-56
2023/11/15 06:06:17;;;;;;;2.15;1.30;;;15.20;99.90;;;;;;5114541;28;20382;-57
2023/11/15 06:08:44;;;;;;;1.63;1.08;;;15.10;99.90;;;;;;5077011;28;20044;-56
2023/11/15 06:11:10;;;;;;;1.08;0.90;;;15.20;99.90;;;;;;5113845;28;20032;-56
2023/11/15 06:13:39;;;;;;;2.75;0.80;;;15.10;99.90;;;;;;5114375;28;20507;-56
2023/11/15 06:16:05;;;;;;;1.00;0.77;;;15.20;99.90;;;;;;5114365;28;20027;-57
2023/11/15 06:18:31;;;;;;;2.08;0.85;;;15.20;99.90;;;;;;5061365;28;20032;-56
2023/11/15 06:20:57;;;;;;;2.17;1.38;;;15.20;99.90;;;;;;5114192;28;20114;-56
2023/11/15 06:23:23;;;;;;;1.70;1.52;;;15.30;99.90;;;;;;5114033;28;20057;-56
2023/11/15 06:25:49;;;;;;;2.55;2.05;;;15.60;99.90;;;;;;5078231;28;20126;-55
2023/11/15 06:28:16;;;;;;;1.10;0.80;;;15.40;99.90;;;;;;5028277;28;20047;-55
2023/11/15 06:30:47;;;;;;;5.93;2.40;;;15.50;99.90;;;;;;5114230;28;20034;-56
2023/11/15 06:33:13;;;;;;;2.85;1.95;;;15.60;99.90;;;;;;5113907;28;20390;-56
2023/11/15 06:35:39;;;;;;;2.47;1.80;;;15.70;99.90;;;;;;5114256;28;20394;-56
2023/11/15 06:38:05;;;;;;;3.33;1.52;;;15.60;99.90;;;;;;5077833;28;20035;-56
2023/11/15 06:40:31;;;;;;;2.75;1.70;;;15.70;99.90;;;;;;5110514;28;20462;-56
2023/11/15 06:42:57;;;;;;;4.05;1.92;;;15.70;99.90;;;;;;5040607;28;20073;-56
2023/11/15 06:45:23;;;;;;;3.08;2.40;;;15.60;99.90;;;;;;5093743;28;20038;-56
2023/11/15 06:47:53;;;;;;;3.38;2.33;;;15.30;99.90;;;;;;5093453;28;20020;-55
2023/11/15 06:50:19;;;;;;;2.97;1.73;;;15.20;99.90;;;;;;5093024;28;20491;-56
2023/11/15 06:52:45;;;;;;;4.60;2.47;;;14.80;99.90;;;;;;5092991;28;20071;-56
2023/11/15 06:55:11;;;;;;;3.45;2.20;;;14.80;99.90;;;;;;5093731;28;20047;-55
2023/11/15 06:57:41;;;;;;;4.35;3.38;;;14.60;99.90;;;;;;5092865;28;20056;-56
2023/11/15 07:00:13;;;;;;;2.95;2.40;;;;;;;;;;5091814;28;20105;-56
2023/11/15 07:02:40;;;;;;;3.40;2.50;;;;;;;;;;5092468;28;20031;-56
2023/11/15 07:05:07;;;;;;;7.53;3.53;;;16.70;99.90;;;;;;5092252;28;20118;-56
2023/11/15 07:07:33;;;;;;;3.80;2.33;;;14.30;99.90;;;;;;5031909;28;20064;-55
2023/11/15 07:09:59;;;;;;;3.55;2.75;;;14.50;99.90;;;;;;5092324;28;20070;-55
2023/11/15 07:12:25;;;;;;;4.75;3.70;;;14.60;99.90;;;;;;5092543;28;20016;-56
2023/11/15 07:14:51;;;;;;;9.68;6.43;;;14.60;99.90;;;;;;5056669;28;20445;-55
2023/11/15 07:17:20;;;;;;;9.63;5.80;;;14.70;99.90;;;;;;5092247;28;20864;-56
2023/11/15 07:19:47;;;;;;;11.20;5.78;;;14.70;99.90;;;;;;4989988;28;20044;-56
2023/11/15 07:22:14;;;;;;;10.25;6.20;;;14.70;99.90;;;;;;5091764;28;20035;-56
2023/11/15 07:24:39;;;;;;;8.85;5.32;;;14.50;99.90;;;;;;5091396;28;20467;-55
2023/11/15 07:27:08;;;;;;;6.57;5.07;;;14.60;99.90;;;;;;5091668;28;20020;-56
2023/11/15 07:29:36;;;;;;;6.25;4.20;;;14.60;99.90;;;;;;5091337;28;20028;-56
2023/11/15 07:32:03;;;;;;;4.88;2.78;;;14.60;99.90;;;;;;5091731;28;20020;-56
2023/11/15 07:34:31;;;;;;;5.30;3.58;;;14.70;99.90;;;;;;5055411;28;20043;-55
2023/11/15 07:36:57;;;;;;;12.35;7.85;;;14.70;99.90;;;;;;5091168;28;20032;-58
2023/11/15 07:39:26;;;;;;;15.93;13.75;;;14.60;99.90;;;;;;5091423;28;20107;-55
2023/11/15 07:41:54;;;;;;;21.35;17.58;;;;;;;;;;5105137;28;20044;-58
2023/11/15 07:44:20;;;;;;;24.33;19.80;;;14.30;99.90;;;;;;5111899;28;20063;-56
2023/11/15 07:46:49;;;;;;;25.40;22.80;;;13.70;99.90;;;;;;5112506;28;20053;-55
2023/11/15 07:49:18;;;;;;;4.80;3.25;;;14.10;99.90;;;;;;5109515;28;20058;-56
2023/11/15 07:51:47;;;;;;;2.20;1.90;;;14.10;99.90;;;;;;5111989;28;20035;-55
2023/11/15 07:54:13;;;;;;;3.08;2.28;;;14.60;99.90;;;;;;5109038;28;20123;-55
2023/11/15 07:56:40;;;;;;;4.47;3.97;;;14.30;99.90;;;;;;5112600;28;20026;-56
2023/11/15 07:59:06;;;;;;;8.68;7.40;;;14.30;99.90;;;;;;5112565;28;20390;-56
2023/11/15 08:01:31;;;;;;;7.35;4.95;;;14.10;99.90;;;;;;5112717;27;20023;-56
2023/11/15 08:03:57;;;;;;;5.95;2.53;;;13.90;99.90;;;;;;5113351;27;20039;-55
2023/11/15 08:06:23;;;;;;;8.50;4.78;;;13.90;99.90;;;;;;5117356;27;20088;-55
2023/11/15 08:08:49;;;;;;;9.77;7.03;;;13.80;99.90;;;;;;5084658;27;20087;-56
2023/11/15 08:11:15;;;;;;;5.30;3.45;;;14.00;99.90;;;;;;5113425;27;20032;-56
2023/11/15 08:13:41;;;;;;;5.72;4.43;;;14.20;99.90;;;;;;5112582;28;20024;-55
2023/11/15 08:16:12;;;;;;;4.85;3.80;;;14.30;99.90;;;;;;5112682;28;20027;-55
2023/11/15 08:18:44;;;;;;;4.50;2.50;;;14.40;99.90;;;;;;5082829;28;20051;-56
2023/11/15 08:21:09;;;;;;;7.55;6.55;;;14.50;99.90;;;;;;5074086;28;20493;-55
2023/11/15 08:23:37;;;;;;;12.60;11.38;;;14.50;99.90;;;;;;5113664;28;20077;-55
2023/11/15 08:26:03;;;;;;;16.10;7.28;;;14.50;99.90;;;;;;5118109;28;20030;-55
2023/11/15 08:28:32;;;;;;;2.33;1.88;;;14.00;99.90;;;;;;5115238;28;20028;-55
2023/11/15 08:30:58;;;;;;;5.53;4.68;;;13.80;99.90;;;;;;5110973;28;20028;-56
2023/11/15 08:33:26;;;;;;;7.60;5.85;;;14.00;99.90;;;;;;5082513;28;20384;-58
2023/11/15 08:35:53;;;;;;;4.28;3.63;;;14.00;99.90;;;;;;5116221;27;20039;-59
2023/11/15 08:38:24;;;;;;;5.38;2.55;;;14.40;99.90;;;;;;5117503;27;20040;-56
2023/11/15 08:40:55;;;;;;;2.33;1.27;;;14.30;99.90;;;;;;5094157;28;20051;-57
2023/11/15 08:43:22;;;;;;;3.00;1.40;;;14.30;99.90;;;;;;5093686;28;20478;-57
2023/11/15 08:45:48;;;;;;;1.67;1.20;;;14.30;99.90;;;;;;5083090;28;20161;-56
2023/11/15 08:48:17;;;;;;;3.28;1.73;;;14.30;99.90;;;;;;5092387;28;20559;-58
2023/11/15 08:50:44;;;;;;;11.02;5.78;;;14.30;99.90;;;;;;5093595;28;20139;-57
2023/11/15 08:53:14;;;;;;;18.88;11.77;;;14.30;99.90;;;;;;5093612;28;20118;-57
2023/11/15 08:55:44;;;;;;;13.07;6.88;;;14.30;99.90;;;;;;5100181;28;20044;-58
2023/11/15 08:58:12;;;;;;;3.55;3.25;;;14.30;99.90;;;;;;5094625;28;20508;-56
2023/11/15 09:00:38;;;;;;;2.65;2.45;;;14.30;99.90;;;;;;5052967;28;20476;-57
2023/11/15 09:03:06;;;;;;;2.95;1.42;;;14.30;99.90;;;;;;5053645;28;20047;-57
2023/11/15 09:05:33;;;;;;;14.00;8.93;;;14.30;99.90;;;;;;5046773;28;20131;-57
2023/11/15 09:08:00;;;;;;;15.23;7.85;;;14.40;99.90;;;;;;5054000;28;20094;-58
2023/11/15 09:10:27;;;;;;;25.90;11.85;;;14.40;99.90;;;;;;5043937;28;20168;-57
2023/11/15 09:12:54;;;;;;;9.35;8.35;;;14.40;99.90;;;;;;5074098;28;20047;-57
2023/11/15 09:15:22;;;;;;;12.38;7.32;;;14.50;99.90;;;;;;5072489;28;20071;-57
2023/11/15 09:17:50;;;;;;;12.75;8.35;;;14.60;99.90;;;;;;5077687;28;20135;-57
2023/11/15 09:20:25;;;;;;;43.00;38.47;;;14.70;99.90;;;;;;5073570;28;20517;-57
2023/11/15 09:22:53;;;;;;;11.68;6.75;;;14.60;99.90;;;;;;5071842;28;20047;-57
2023/11/15 09:25:30;;;;;;;12.10;8.45;;;14.70;99.90;;;;;;5070728;28;20040;-57
2023/11/15 09:27:59;;;;;;;7.32;4.40;;;14.70;99.90;;;;;;5073992;28;20041;-58
2023/11/15 09:30:26;;;;;;;10.52;4.90;;;14.70;99.90;;;;;;5073378;28;20025;-55
2023/11/15 09:32:53;;;;;;;10.45;6.22;;;14.60;99.90;;;;;;5097963;28;20032;-57
2023/11/15 09:35:27;;;;;;;9.95;5.35;;;14.60;99.90;;;;;;5096432;28;20032;-57
2023/11/15 09:37:53;;;;;;;6.50;3.88;;;14.60;99.90;;;;;;5096636;28;20129;-58
2023/11/15 09:40:21;;;;;;;12.43;8.52;;;14.60;99.90;;;;;;5096764;28;20028;-57
2023/11/15 09:42:54;;;;;;;5.60;4.07;;;14.60;99.90;;;;;;5096270;28;20181;-57
2023/11/15 09:45:23;;;;;;;29.38;22.08;;;14.60;99.90;;;;;;5094641;28;20482;-57
2023/11/15 09:47:50;;;;;;;13.32;10.88;;;14.60;99.90;;;;;;5097684;28;20032;-57
2023/11/15 09:50:21;;;;;;;1.92;1.63;;;14.60;99.90;;;;;;5102962;28;20101;-57
2023/11/15 09:52:53;;;;;;;5.95;3.65;;;14.60;99.90;;;;;;5091681;28;20039;-57
2023/11/15 09:55:24;;;;;;;10.43;8.85;;;14.70;99.90;;;;;;5093056;28;20036;-57
2023/11/15 09:57:51;;;;;;;13.48;10.98;;;14.60;99.90;;;;;;5092721;28;20037;-57
2023/11/15 10:00:21;;;;;;;10.65;8.13;;;14.40;99.90;;;;;;5096192;28;20024;-57
2023/11/15 10:02:47;;;;;;;17.15;15.05;;;14.70;99.90;;;;;;5093924;28;20036;-54
2023/11/15 10:05:15;;;;;;;9.05;7.43;;;14.80;99.90;;;;;;5096110;28;20438;-57
2023/11/15 10:07:42;;;;;;;8.48;5.70;;;14.80;99.90;;;;;;5096995;28;20028;-57
2023/11/15 10:10:21;;;;;;;7.28;3.90;;;14.90;99.90;;;;;;5096039;28;20038;-57
2023/11/15 10:12:56;;;;;;;7.85;5.07;;;15.00;99.90;;;;;;5090104;28;20028;-57
2023/11/15 10:15:36;;;;;;;7.57;5.72;;;15.00;99.90;;;;;;5096030;28;20024;-57
2023/11/15 10:18:08;;;;;;;9.60;7.68;;;15.00;99.90;;;;;;5095187;28;20039;-56
2023/11/15 10:20:35;;;;;;;8.13;5.28;;;15.00;99.90;;;;;;5062867;28;20050;-57
2023/11/15 10:23:01;;;;;;;18.55;11.55;;;15.00;99.90;;;;;;5101462;28;20043;-57
2023/11/15 10:25:27;;;;;;;5.28;4.55;;;15.00;99.90;;;;;;5094455;28;20437;-57
2023/11/15 10:28:08;;;;;;;9.85;6.88;;;;;;;;;;5095753;28;20539;-55
2023/11/15 10:30:33;;;;;;;4.88;3.53;;;15.10;99.90;;;;;;5099677;28;20107;-55
2023/11/15 10:33:16;;;;;;;2.63;2.08;;;15.10;99.90;;;;;;5096019;28;20198;-55
2023/11/15 10:35:43;;;;;;;1.88;1.30;;;15.00;99.90;;;;;;5097902;28;20046;-55
2023/11/15 10:38:18;;;;;;;1.83;1.35;;;15.00;99.90;;;;;;5089157;28;20031;-54
2023/11/15 10:40:46;;;;;;;2.42;1.50;;;15.00;99.90;;;;;;5088879;28;20411;-56
2023/11/15 10:43:15;;;;;;;2.40;1.60;;;15.10;99.90;;;;;;5089094;28;20547;-55
2023/11/15 10:45:43;;;;;;;4.13;2.08;;;15.20;99.90;;;;;;5095594;28;20031;-55
2023/11/15 10:48:13;;;;;;;2.22;1.67;;;15.20;99.90;;;;;;5090092;28;20035;-55
2023/11/15 10:50:49;;;;;;;12.70;11.45;;;15.30;99.90;;;;;;5098677;28;20465;-55
2023/11/15 10:53:17;;;;;;;9.85;5.88;;;15.50;99.90;;;;;;5088623;28;20048;-55
2023/11/15 10:55:43;;;;;;;7.40;3.90;;;15.60;99.90;;;;;;5092102;28;20072;-55
2023/11/15 10:58:11;;;;;;;3.85;1.98;;;15.60;99.90;;;;;;5089330;28;20043;-55
2023/11/15 11:00:43;;;;;;;2.90;1.92;;;15.70;99.90;;;;;;5091802;28;20514;-55
2023/11/15 11:03:09;;;;;;;6.70;5.65;;;15.80;99.90;;;;;;5091355;28;20044;-55
2023/11/15 11:05:52;;;;;;;4.80;3.30;;;15.90;99.90;;;;;;5093820;28;20530;-55
2023/11/15 11:09:10;;;;;;;3.58;1.70;;;16.00;99.90;;;;;;5081290;28;20484;-55
2023/11/15 11:11:54;;;;;;;4.10;3.10;;;16.20;99.90;;;;;;5082790;28;20036;-55
2023/11/15 11:14:25;;;;;;;2.85;2.05;;;16.20;99.90;;;;;;5086308;28;20028;-55
2023/11/15 11:16:52;;;;;;;2.40;1.50;;;16.30;99.90;;;;;;5094013;28;20040;-55
2023/11/15 11:19:22;;;;;;;4.63;1.70;;;;;;;;;;5091536;28;20027;-55
2023/11/15 11:22:03;;;;;;;3.65;2.60;;;16.20;99.90;;;;;;5093428;28;20029;-55
2023/11/15 11:24:31;;;;;;;5.20;1.63;;;16.30;99.90;;;;;;5090271;28;20028;-55
2023/11/15 11:27:17;;;;;;;7.25;2.30;;;16.50;99.90;;;;;;5094175;28;20032;-55
2023/11/15 11:29:49;;;;;;;5.18;2.45;;;16.50;99.90;;;;;;5075445;28;20043;-55
2023/11/15 11:32:31;;;;;;;3.33;2.33;;;16.60;99.90;;;;;;5088481;28;20457;-57
2023/11/15 11:35:30;;;;;;;5.45;3.00;;;16.80;99.90;;;;;;5102034;28;20032;-54
2023/11/15 11:37:59;;;;;;;2.47;1.65;;;16.80;99.90;;;;;;5093676;28;20042;-55
2023/11/15 11:40:32;;;;;;;2.88;1.52;;;16.80;99.90;;;;;;5094734;27;20040;-54
2023/11/15 11:43:26;;;;;;;5.35;3.80;;;17.00;99.90;;;;;;5119529;27;20036;-54
2023/11/15 11:45:53;;;;;;;1.70;1.48;;;17.00;99.90;;;;;;5110600;27;20028;-54
2023/11/15 11:48:28;;;;;;;6.35;2.97;;;17.00;99.90;;;;;;5078728;28;20039;-55
2023/11/15 11:51:08;;;;;;;9.43;2.25;;;17.00;99.90;;;;;;5117378;27;20091;-54
2023/11/15 11:53:38;;;;;;;2.72;1.70;;;17.10;99.90;;;;;;5111974;28;20378;-54
2023/11/15 11:56:08;;;;;;;2.10;1.60;;;17.20;99.90;;;;;;5115509;27;20061;-54
2023/11/15 11:58:36;;;;;;;4.80;2.30;;;17.10;99.90;;;;;;5113055;28;20038;-53
2023/11/15 12:01:06;;;;;;;18.35;8.25;;;17.20;99.90;;;;;;5112228;27;20089;-53
2023/11/15 12:03:39;;;;;;;11.13;4.68;;;17.30;99.90;;;;;;5060856;27;20401;-53
2023/11/15 12:06:10;;;;;;;4.85;2.63;;;17.40;99.90;;;;;;5111086;28;20035;-55
2023/11/15 12:08:38;;;;;;;3.78;2.45;;;17.40;99.90;;;;;;5113397;28;20031;-53
2023/11/15 12:11:10;;;;;;;7.95;2.70;;;17.50;99.90;;;;;;5117380;27;20036;-53
2023/11/15 12:13:42;;;;;;;6.55;3.00;;;17.50;99.90;;;;;;5113221;27;20275;-53
2023/11/15 12:16:24;;;;;;;19.30;6.60;;;17.50;99.90;;;;;;5111572;28;20024;-53
2023/11/15 12:18:58;;;;;;;5.30;3.40;;;17.50;99.90;;;;;;5113173;28;20032;-53
2023/11/15 12:21:25;;;;;;;8.73;4.95;;;17.50;99.90;;;;;;5107985;28;20080;-54
2023/11/15 12:23:50;;;;;;;9.23;5.65;;;17.50;99.90;;;;;;5112391;28;20465;-54
2023/11/15 12:26:16;;;;;;;4.32;3.08;;;17.50;99.90;;;;;;5115696;28;20031;-54
2023/11/15 12:28:42;;;;;;;97.88;44.53;;;17.50;99.90;;;;;;5077300;28;20118;-53
2023/11/15 12:31:08;;;;;;;28.48;15.68;;;17.50;99.90;;;;;;5077152;28;20035;-53
2023/11/15 12:33:36;;;;;;;10.68;5.30;;;17.50;99.90;;;;;;5109114;28;20035;-53
2023/11/15 12:36:06;;;;;;;8.18;4.90;;;17.50;99.90;;;;;;5112994;28;20028;-55
2023/11/15 12:38:32;;;;;;;4.10;2.45;;;17.50;99.90;;;;;;5114151;28;20027;-56
2023/11/15 12:41:04;;;;;;;10.90;5.70;;;17.40;99.90;;;;;;5111512;28;20544;-56
2023/11/15 12:43:31;;;;;;;6.28;3.20;;;17.40;99.90;;;;;;5076961;28;20411;-54
2023/11/15 12:46:01;;;;;;;17.23;11.55;;;17.50;99.90;;;;;;5113250;28;20016;-54
2023/11/15 12:48:27;;;;;;;144.27;58.53;;;17.30;99.90;;;;;;5111428;28;20036;-54
2023/11/15 12:51:00;;;;;;;69.45;30.20;;;17.30;99.90;;;;;;5112963;28;20065;-54
2023/11/15 12:53:30;;;;;;;8.85;6.63;;;17.20;99.90;;;;;;5111767;28;20031;-54